Terminal Aerodrome Forecast
Issued by NWS

Current Version | Previous Version | Text Only | Print | Product List | Glossary On
Versions: 1 2 3 4 5 6 7 8 9 10 11 12 13 14 15 16 17 18 19 20
000
FTUS46 KLOX 172334
TAFVNY
TAF
KVNY 172334Z 1800/1824 15010KT P6SM SKC
     FM180400 12004KT P6SM SKC
     FM181100 VRB03KT 4SM BR BKN009
     FM181500 VRB03KT 5SM BR BKN010
     FM181800 VRB03KT 6SM HZ SKC
     FM182200 15008KT P6SM SKC=

USA.gov is the U.S. government's official web portal to all federal, state and local government web resources and services.